sensor_id;sensor_type;location;lat;lon;timestamp;temperature;humidity
38209;DHT22;24016;52.102;11.584;2023-02-28T00:00:39;-0.70;99.90
38209;DHT22;24016;52.102;11.584;2023-02-28T00:03:07;-0.70;99.90
38209;DHT22;24016;52.102;11.584;2023-02-28T00:05:33;-0.70;99.90
38209;DHT22;24016;52.102;11.584;2023-02-28T00:07:59;-0.70;99.90
38209;DHT22;24016;52.102;11.584;2023-02-28T00:10:27;-0.70;99.90
38209;DHT22;24016;52.102;11.584;2023-02-28T00:12:58;-0.60;99.90
38209;DHT22;24016;52.102;11.584;2023-02-28T00:15:24;-0.70;99.90
38209;DHT22;24016;52.102;11.584;2023-02-28T00:17:52;-0.70;99.90
38209;DHT22;24016;52.102;11.584;2023-02-28T00:20:19;-0.60;99.90
38209;DHT22;24016;52.102;11.584;2023-02-28T00:22:50;-0.60;99.90
38209;DHT22;24016;52.102;11.584;2023-02-28T00:25:22;-0.50;99.90
38209;DHT22;24016;52.102;11.584;2023-02-28T00:27:52;-0.60;99.90
38209;DHT22;24016;52.102;11.584;2023-02-28T00:30:22;-0.60;99.90
38209;DHT22;24016;52.102;11.584;2023-02-28T00:32:50;-0.50;99.90
38209;DHT22;24016;52.102;11.584;2023-02-28T00:35:16;-0.50;99.90
38209;DHT22;24016;52.102;11.584;2023-02-28T00:37:42;-0.50;99.90
38209;DHT22;24016;52.102;11.584;2023-02-28T00:40:10;-0.50;99.90
38209;DHT22;24016;52.102;11.584;2023-02-28T00:42:39;-0.50;99.90
38209;DHT22;24016;52.102;11.584;2023-02-28T00:45:05;-0.40;99.90
38209;DHT22;24016;52.102;11.584;2023-02-28T00:47:32;-0.40;99.90
38209;DHT22;24016;52.102;11.584;2023-02-28T00:49:58;-0.40;99.90
38209;DHT22;24016;52.102;11.584;2023-02-28T00:52:23;-0.40;99.90
38209;DHT22;24016;52.102;11.584;2023-02-28T00:54:49;-0.30;99.90
38209;DHT22;24016;52.102;11.584;2023-02-28T00:57:15;-0.40;99.90
38209;DHT22;24016;52.102;11.584;2023-02-28T00:59:40;-0.40;99.90
38209;DHT22;24016;52.102;11.584;2023-02-28T01:02:06;-0.50;99.90
38209;DHT22;24016;52.102;11.584;2023-02-28T01:04:31;-0.50;99.90
38209;DHT22;24016;52.102;11.584;2023-02-28T01:06:57;-0.50;99.90
38209;DHT22;24016;52.102;11.584;2023-02-28T01:09:22;-0.50;99.90
38209;DHT22;24016;52.102;11.584;2023-02-28T01:11:48;-0.60;99.90
38209;DHT22;24016;52.102;11.584;2023-02-28T01:14:15;-0.60;99.90
38209;DHT22;24016;52.102;11.584;2023-02-28T01:16:41;-0.60;99.90
38209;DHT22;24016;52.102;11.584;2023-02-28T01:19:06;-0.60;99.90
38209;DHT22;24016;52.102;11.584;2023-02-28T01:21:32;-0.60;99.90
38209;DHT22;24016;52.102;11.584;2023-02-28T01:23:58;-0.70;99.90
38209;DHT22;24016;52.102;11.584;2023-02-28T01:26:24;-0.70;99.90
38209;DHT22;24016;52.102;11.584;2023-02-28T01:28:51;-0.70;99.90
38209;DHT22;24016;52.102;11.584;2023-02-28T01:31:17;-0.70;99.90
38209;DHT22;24016;52.102;11.584;2023-02-28T01:33:44;-0.70;99.90
38209;DHT22;24016;52.102;11.584;2023-02-28T01:36:12;-0.70;99.90
38209;DHT22;24016;52.102;11.584;2023-02-28T01:38:39;-0.70;99.90
38209;DHT22;24016;52.102;11.584;2023-02-28T01:41:05;-0.70;99.90
38209;DHT22;24016;52.102;11.584;2023-02-28T01:43:52;-0.70;99.90
38209;DHT22;24016;52.102;11.584;2023-02-28T01:46:18;-0.80;99.90
38209;DHT22;24016;52.102;11.584;2023-02-28T01:49:07;-0.70;99.90
38209;DHT22;24016;52.102;11.584;2023-02-28T01:51:46;-0.80;99.90
38209;DHT22;24016;52.102;11.584;2023-02-28T01:54:25;-0.80;99.90
38209;DHT22;24016;52.102;11.584;2023-02-28T01:56:55;-0.80;99.90
38209;DHT22;24016;52.102;11.584;2023-02-28T01:59:30;-0.90;99.90
38209;DHT22;24016;52.102;11.584;2023-02-28T02:01:57;-0.90;99.90
38209;DHT22;24016;52.102;11.584;2023-02-28T02:04:25;-0.90;99.90
38209;DHT22;24016;52.102;11.584;2023-02-28T02:06:52;-1.00;99.90
38209;DHT22;24016;52.102;11.584;2023-02-28T02:09:17;-1.00;99.90
38209;DHT22;24016;52.102;11.584;2023-02-28T02:11:45;-1.00;99.90
38209;DHT22;24016;52.102;11.584;2023-02-28T02:14:43;-1.10;99.90
38209;DHT22;24016;52.102;11.584;2023-02-28T02:26:18;-1.20;99.90
38209;DHT22;24016;52.102;11.584;2023-02-28T02:29:26;-1.20;99.90
38209;DHT22;24016;52.102;11.584;2023-02-28T02:32:16;-1.20;99.90
38209;DHT22;24016;52.102;11.584;2023-02-28T02:35:14;-1.20;99.90
38209;DHT22;24016;52.102;11.584;2023-02-28T02:37:51;-1.20;99.90
38209;DHT22;24016;52.102;11.584;2023-02-28T02:40:21;-1.20;99.90
38209;DHT22;24016;52.102;11.584;2023-02-28T02:43:01;-1.20;99.90
38209;DHT22;24016;52.102;11.584;2023-02-28T02:45:42;-1.20;99.90
38209;DHT22;24016;52.102;11.584;2023-02-28T02:48:12;-1.10;99.90
38209;DHT22;24016;52.102;11.584;2023-02-28T02:50:45;-1.10;99.90
38209;DHT22;24016;52.102;11.584;2023-02-28T02:53:11;-1.10;99.90
38209;DHT22;24016;52.102;11.584;2023-02-28T02:55:41;-1.10;99.90
38209;DHT22;24016;52.102;11.584;2023-02-28T02:58:12;-1.10;99.90
38209;DHT22;24016;52.102;11.584;2023-02-28T03:00:43;-1.00;99.90
38209;DHT22;24016;52.102;11.584;2023-02-28T03:03:12;-1.00;99.90
38209;DHT22;24016;52.102;11.584;2023-02-28T03:05:57;-1.00;99.90
38209;DHT22;24016;52.102;11.584;2023-02-28T03:08:23;-1.00;99.90
38209;DHT22;24016;52.102;11.584;2023-02-28T03:10:51;-1.00;99.90
38209;DHT22;24016;52.102;11.584;2023-02-28T03:13:20;-1.00;99.90
38209;DHT22;24016;52.102;11.584;2023-02-28T03:21:08;-1.00;99.90
38209;DHT22;24016;52.102;11.584;2023-02-28T03:23:48;-1.00;99.90
38209;DHT22;24016;52.102;11.584;2023-02-28T03:26:21;-1.00;99.90
38209;DHT22;24016;52.102;11.584;2023-02-28T03:31:58;-1.00;99.90
38209;DHT22;24016;52.102;11.584;2023-02-28T03:34:29;-1.00;99.90
38209;DHT22;24016;52.102;11.584;2023-02-28T03:37:04;-1.00;99.90
38209;DHT22;24016;52.102;11.584;2023-02-28T03:39:49;-0.90;99.90
38209;DHT22;24016;52.102;11.584;2023-02-28T03:42:22;-0.90;99.90
38209;DHT22;24016;52.102;11.584;2023-02-28T03:44:59;-1.00;99.90
38209;DHT22;24016;52.102;11.584;2023-02-28T03:47:29;-1.00;99.90
38209;DHT22;24016;52.102;11.584;2023-02-28T03:50:13;-1.00;99.90
38209;DHT22;24016;52.102;11.584;2023-02-28T03:52:44;-1.00;99.90
38209;DHT22;24016;52.102;11.584;2023-02-28T03:55:13;-1.00;99.90
38209;DHT22;24016;52.102;11.584;2023-02-28T03:58:01;-1.00;99.90
38209;DHT22;24016;52.102;11.584;2023-02-28T04:00:40;-1.10;99.90
38209;DHT22;24016;52.102;11.584;2023-02-28T04:03:06;-1.10;99.90
38209;DHT22;24016;52.102;11.584;2023-02-28T04:05:32;-1.10;99.90
38209;DHT22;24016;52.102;11.584;2023-02-28T04:08:07;-1.10;99.90
38209;DHT22;24016;52.102;11.584;2023-02-28T04:10:33;-1.10;99.90
38209;DHT22;24016;52.102;11.584;2023-02-28T04:12:59;-1.20;99.90
38209;DHT22;24016;52.102;11.584;2023-02-28T04:15:24;-1.20;99.90
38209;DHT22;24016;52.102;11.584;2023-02-28T04:17:50;-1.20;99.90
38209;DHT22;24016;52.102;11.584;2023-02-28T04:20:15;-1.30;99.90
38209;DHT22;24016;52.102;11.584;2023-02-28T04:22:41;-1.30;99.90
38209;DHT22;24016;52.102;11.584;2023-02-28T04:25:07;-1.30;99.90
38209;DHT22;24016;52.102;11.584;2023-02-28T04:27:33;-1.30;99.90
38209;DHT22;24016;52.102;11.584;2023-02-28T04:29:59;-1.30;99.90
38209;DHT22;24016;52.102;11.584;2023-02-28T04:32:24;-1.40;99.90
38209;DHT22;24016;52.102;11.584;2023-02-28T04:34:50;-1.50;99.90
38209;DHT22;24016;52.102;11.584;2023-02-28T04:37:15;-1.50;99.90
38209;DHT22;24016;52.102;11.584;2023-02-28T04:39:42;-1.50;99.90
38209;DHT22;24016;52.102;11.584;2023-02-28T04:42:08;-1.60;99.90
38209;DHT22;24016;52.102;11.584;2023-02-28T04:44:33;-1.60;99.90
38209;DHT22;24016;52.102;11.584;2023-02-28T04:46:59;-1.70;99.90
38209;DHT22;24016;52.102;11.584;2023-02-28T04:49:25;-1.70;99.90
38209;DHT22;24016;52.102;11.584;2023-02-28T04:51:51;-1.70;99.90
38209;DHT22;24016;52.102;11.584;2023-02-28T04:54:18;-1.80;99.90
38209;DHT22;24016;52.102;11.584;2023-02-28T04:56:43;-1.80;99.90
38209;DHT22;24016;52.102;11.584;2023-02-28T04:59:09;-1.80;99.90
38209;DHT22;24016;52.102;11.584;2023-02-28T05:01:34;-1.90;99.90
38209;DHT22;24016;52.102;11.584;2023-02-28T05:04:02;-1.90;99.90
38209;DHT22;24016;52.102;11.584;2023-02-28T05:06:31;-2.00;99.90
38209;DHT22;24016;52.102;11.584;2023-02-28T05:08:57;-2.10;99.90
38209;DHT22;24016;52.102;11.584;2023-02-28T05:11:26;-2.20;99.90
38209;DHT22;24016;52.102;11.584;2023-02-28T05:13:52;-2.30;99.90
38209;DHT22;24016;52.102;11.584;2023-02-28T05:16:19;-2.40;99.90
38209;DHT22;24016;52.102;11.584;2023-02-28T05:18:45;-2.40;99.90
38209;DHT22;24016;52.102;11.584;2023-02-28T05:23:49;-2.60;99.90
38209;DHT22;24016;52.102;11.584;2023-02-28T05:26:15;-2.60;99.90
38209;DHT22;24016;52.102;11.584;2023-02-28T05:28:40;-2.60;99.90
38209;DHT22;24016;52.102;11.584;2023-02-28T05:31:07;-2.70;99.90
38209;DHT22;24016;52.102;11.584;2023-02-28T05:33:32;-2.80;99.90
38209;DHT22;24016;52.102;11.584;2023-02-28T05:35:58;-2.90;99.90
38209;DHT22;24016;52.102;11.584;2023-02-28T05:38:23;-2.90;99.90
38209;DHT22;24016;52.102;11.584;2023-02-28T05:40:51;-3.00;99.90
38209;DHT22;24016;52.102;11.584;2023-02-28T05:43:18;-2.90;99.90
38209;DHT22;24016;52.102;11.584;2023-02-28T05:45:44;-2.90;99.90
38209;DHT22;24016;52.102;11.584;2023-02-28T05:48:09;-2.90;99.90
38209;DHT22;24016;52.102;11.584;2023-02-28T05:50:35;-3.00;99.90
38209;DHT22;24016;52.102;11.584;2023-02-28T05:53:01;-3.00;99.90
38209;DHT22;24016;52.102;11.584;2023-02-28T05:55:27;-3.10;99.90
38209;DHT22;24016;52.102;11.584;2023-02-28T05:57:52;-3.10;99.90
38209;DHT22;24016;52.102;11.584;2023-02-28T06:00:18;-3.20;99.90
38209;DHT22;24016;52.102;11.584;2023-02-28T06:02:44;-3.20;99.90
38209;DHT22;24016;52.102;11.584;2023-02-28T06:05:17;-3.20;99.90
38209;DHT22;24016;52.102;11.584;2023-02-28T06:07:43;-3.30;99.90
38209;DHT22;24016;52.102;11.584;2023-02-28T06:10:13;-3.30;99.90
38209;DHT22;24016;52.102;11.584;2023-02-28T06:12:39;-3.30;99.90
38209;DHT22;24016;52.102;11.584;2023-02-28T06:15:05;-3.40;99.90
38209;DHT22;24016;52.102;11.584;2023-02-28T06:17:30;-3.40;99.90
38209;DHT22;24016;52.102;11.584;2023-02-28T06:19:56;-3.40;99.90
38209;DHT22;24016;52.102;11.584;2023-02-28T06:22:21;-3.40;99.90
38209;DHT22;24016;52.102;11.584;2023-02-28T06:24:47;-3.30;99.90
38209;DHT22;24016;52.102;11.584;2023-02-28T06:27:13;-3.30;99.90
38209;DHT22;24016;52.102;11.584;2023-02-28T06:29:38;-3.20;99.90
38209;DHT22;24016;52.102;11.584;2023-02-28T06:32:05;-3.20;99.90
38209;DHT22;24016;52.102;11.584;2023-02-28T06:34:31;-3.10;99.90
38209;DHT22;24016;52.102;11.584;2023-02-28T06:36:57;-3.00;99.90
38209;DHT22;24016;52.102;11.584;2023-02-28T06:39:28;-2.80;99.90
38209;DHT22;24016;52.102;11.584;2023-02-28T06:41:54;-2.60;99.90
38209;DHT22;24016;52.102;11.584;2023-02-28T06:44:20;-2.40;99.90
38209;DHT22;24016;52.102;11.584;2023-02-28T06:46:46;-2.20;99.90
38209;DHT22;24016;52.102;11.584;2023-02-28T06:49:11;-2.00;99.90
38209;DHT22;24016;52.102;11.584;2023-02-28T06:51:39;-1.90;99.90
38209;DHT22;24016;52.102;11.584;2023-02-28T06:54:06;-1.80;99.90
38209;DHT22;24016;52.102;11.584;2023-02-28T06:56:35;-1.60;99.90
38209;DHT22;24016;52.102;11.584;2023-02-28T06:59:00;-1.40;99.90
38209;DHT22;24016;52.102;11.584;2023-02-28T07:01:26;-1.20;99.90
38209;DHT22;24016;52.102;11.584;2023-02-28T07:03:53;-0.80;99.90
38209;DHT22;24016;52.102;11.584;2023-02-28T07:06:23;-0.50;99.90
38209;DHT22;24016;52.102;11.584;2023-02-28T07:08:49;0.00;99.90
38209;DHT22;24016;52.102;11.584;2023-02-28T07:11:15;0.30;99.90
38209;DHT22;24016;52.102;11.584;2023-02-28T07:13:41;0.30;99.90
38209;DHT22;24016;52.102;11.584;2023-02-28T07:16:10;0.50;99.90
38209;DHT22;24016;52.102;11.584;2023-02-28T07:18:36;0.50;99.90
38209;DHT22;24016;52.102;11.584;2023-02-28T07:21:07;0.30;99.90
38209;DHT22;24016;52.102;11.584;2023-02-28T07:23:34;0.20;99.90
38209;DHT22;24016;52.102;11.584;2023-02-28T07:25:59;0.20;99.90
38209;DHT22;24016;52.102;11.584;2023-02-28T07:28:25;0.10;99.90
38209;DHT22;24016;52.102;11.584;2023-02-28T07:30:51;0.20;99.90
38209;DHT22;24016;52.102;11.584;2023-02-28T07:33:16;0.10;99.90
38209;DHT22;24016;52.102;11.584;2023-02-28T07:35:42;0.20;99.90
38209;DHT22;24016;52.102;11.584;2023-02-28T07:38:08;0.20;99.90
38209;DHT22;24016;52.102;11.584;2023-02-28T07:40:34;0.40;99.90
38209;DHT22;24016;52.102;11.584;2023-02-28T07:43:00;0.60;99.90
38209;DHT22;24016;52.102;11.584;2023-02-28T07:45:27;0.60;99.90
38209;DHT22;24016;52.102;11.584;2023-02-28T07:47:54;0.70;99.90
38209;DHT22;24016;52.102;11.584;2023-02-28T07:50:20;0.60;99.90
38209;DHT22;24016;52.102;11.584;2023-02-28T07:52:46;0.70;99.90
38209;DHT22;24016;52.102;11.584;2023-02-28T07:55:11;0.90;99.90
38209;DHT22;24016;52.102;11.584;2023-02-28T07:57:37;1.10;99.90
38209;DHT22;24016;52.102;11.584;2023-02-28T08:00:04;1.10;99.90
38209;DHT22;24016;52.102;11.584;2023-02-28T08:02:30;1.30;99.90
38209;DHT22;24016;52.102;11.584;2023-02-28T08:04:56;1.50;99.90
38209;DHT22;24016;52.102;11.584;2023-02-28T08:07:21;1.50;99.90
38209;DHT22;24016;52.102;11.584;2023-02-28T08:09:47;1.60;99.90
38209;DHT22;24016;52.102;11.584;2023-02-28T08:12:12;1.90;99.90
38209;DHT22;24016;52.102;11.584;2023-02-28T08:14:39;2.50;99.90
38209;DHT22;24016;52.102;11.584;2023-02-28T08:17:05;3.00;99.90
38209;DHT22;24016;52.102;11.584;2023-02-28T08:19:31;3.30;99.90
38209;DHT22;24016;52.102;11.584;2023-02-28T08:21:57;3.40;99.90
38209;DHT22;24016;52.102;11.584;2023-02-28T08:24:23;3.50;99.90
38209;DHT22;24016;52.102;11.584;2023-02-28T08:26:49;3.60;99.90
38209;DHT22;24016;52.102;11.584;2023-02-28T08:29:15;4.20;99.90
38209;DHT22;24016;52.102;11.584;2023-02-28T08:31:41;4.30;99.90
38209;DHT22;24016;52.102;11.584;2023-02-28T08:34:11;4.90;99.90
38209;DHT22;24016;52.102;11.584;2023-02-28T08:36:38;5.10;99.90
38209;DHT22;24016;52.102;11.584;2023-02-28T08:39:04;4.70;99.90
38209;DHT22;24016;52.102;11.584;2023-02-28T08:41:29;5.00;99.90
38209;DHT22;24016;52.102;11.584;2023-02-28T08:43:55;5.30;99.90
38209;DHT22;24016;52.102;11.584;2023-02-28T08:46:20;5.70;99.90
38209;DHT22;24016;52.102;11.584;2023-02-28T08:48:46;5.30;99.90
38209;DHT22;24016;52.102;11.584;2023-02-28T08:51:14;5.50;99.90
38209;DHT22;24016;52.102;11.584;2023-02-28T08:53:41;5.40;99.90
38209;DHT22;24016;52.102;11.584;2023-02-28T08:56:12;5.30;99.90
38209;DHT22;24016;52.102;11.584;2023-02-28T08:58:38;5.20;99.90
38209;DHT22;24016;52.102;11.584;2023-02-28T09:01:12;5.70;99.90
38209;DHT22;24016;52.102;11.584;2023-02-28T09:03:38;6.20;99.90
38209;DHT22;24016;52.102;11.584;2023-02-28T09:06:04;6.20;99.90
38209;DHT22;24016;52.102;11.584;2023-02-28T09:08:30;6.30;99.90
38209;DHT22;24016;52.102;11.584;2023-02-28T09:10:57;6.70;99.90
38209;DHT22;24016;52.102;11.584;2023-02-28T09:13:24;6.50;99.90
38209;DHT22;24016;52.102;11.584;2023-02-28T09:15:50;6.60;99.90
38209;DHT22;24016;52.102;11.584;2023-02-28T09:18:16;6.20;99.90
38209;DHT22;24016;52.102;11.584;2023-02-28T09:20:42;6.30;99.90
38209;DHT22;24016;52.102;11.584;2023-02-28T09:23:09;6.50;99.90
38209;DHT22;24016;52.102;11.584;2023-02-28T09:25:35;6.70;99.90
38209;DHT22;24016;52.102;11.584;2023-02-28T09:28:01;6.70;99.90
38209;DHT22;24016;52.102;11.584;2023-02-28T09:30:26;7.00;99.90
38209;DHT22;24016;52.102;11.584;2023-02-28T09:32:52;7.00;99.90
38209;DHT22;24016;52.102;11.584;2023-02-28T09:35:19;7.50;99.90
38209;DHT22;24016;52.102;11.584;2023-02-28T09:37:47;8.50;99.90
38209;DHT22;24016;52.102;11.584;2023-02-28T09:40:13;7.50;99.90
38209;DHT22;24016;52.102;11.584;2023-02-28T09:42:40;7.80;99.90
38209;DHT22;24016;52.102;11.584;2023-02-28T09:45:19;8.90;99.90
38209;DHT22;24016;52.102;11.584;2023-02-28T09:47:47;8.90;99.90
38209;DHT22;24016;52.102;11.584;2023-02-28T09:52:50;9.50;99.60
38209;DHT22;24016;52.102;11.584;2023-02-28T09:55:25;9.40;99.90
38209;DHT22;24016;52.102;11.584;2023-02-28T09:57:53;9.20;99.90
38209;DHT22;24016;52.102;11.584;2023-02-28T10:00:44;10.00;99.30
38209;DHT22;24016;52.102;11.584;2023-02-28T10:03:32;9.80;98.70
38209;DHT22;24016;52.102;11.584;2023-02-28T10:06:13;9.30;98.30
38209;DHT22;24016;52.102;11.584;2023-02-28T10:08:45;9.10;97.90
38209;DHT22;24016;52.102;11.584;2023-02-28T10:11:16;9.70;97.30
38209;DHT22;24016;52.102;11.584;2023-02-28T10:16:53;9.70;97.80
38209;DHT22;24016;52.102;11.584;2023-02-28T10:19:35;10.10;96.70
38209;DHT22;24016;52.102;11.584;2023-02-28T10:22:22;10.30;97.10
38209;DHT22;24016;52.102;11.584;2023-02-28T10:24:53;10.90;95.00
38209;DHT22;24016;52.102;11.584;2023-02-28T10:27:28;11.00;95.90
38209;DHT22;24016;52.102;11.584;2023-02-28T10:29:56;11.60;95.60
38209;DHT22;24016;52.102;11.584;2023-02-28T10:32:25;11.40;94.10
38209;DHT22;24016;52.102;11.584;2023-02-28T10:35:16;11.10;94.70
38209;DHT22;24016;52.102;11.584;2023-02-28T10:37:45;11.20;94.30
38209;DHT22;24016;52.102;11.584;2023-02-28T10:40:34;11.20;94.70
38209;DHT22;24016;52.102;11.584;2023-02-28T10:43:18;11.20;93.60
38209;DHT22;24016;52.102;11.584;2023-02-28T10:45:56;11.50;92.70
38209;DHT22;24016;52.102;11.584;2023-02-28T11:01:19;9.80;94.90
38209;DHT22;24016;52.102;11.584;2023-02-28T11:03:46;9.70;94.30
38209;DHT22;24016;52.102;11.584;2023-02-28T11:06:33;10.20;94.70
38209;DHT22;24016;52.102;11.584;2023-02-28T11:09:04;10.70;94.10
38209;DHT22;24016;52.102;11.584;2023-02-28T11:11:43;10.20;94.40
38209;DHT22;24016;52.102;11.584;2023-02-28T11:14:20;9.80;94.10
38209;DHT22;24016;52.102;11.584;2023-02-28T11:16:47;9.00;93.80
38209;DHT22;24016;52.102;11.584;2023-02-28T11:19:26;8.60;94.80
38209;DHT22;24016;52.102;11.584;2023-02-28T11:22:00;9.10;93.90
38209;DHT22;24016;52.102;11.584;2023-02-28T11:24:37;8.90;93.90
38209;DHT22;24016;52.102;11.584;2023-02-28T11:27:05;8.50;94.30
38209;DHT22;24016;52.102;11.584;2023-02-28T11:29:32;9.90;94.20
38209;DHT22;24016;52.102;11.584;2023-02-28T11:32:25;10.40;93.80
38209;DHT22;24016;52.102;11.584;2023-02-28T11:35:14;9.80;94.50
38209;DHT22;24016;52.102;11.584;2023-02-28T11:37:43;10.00;94.10
38209;DHT22;24016;52.102;11.584;2023-02-28T11:40:34;10.70;93.80
38209;DHT22;24016;52.102;11.584;2023-02-28T11:43:18;10.10;93.50
38209;DHT22;24016;52.102;11.584;2023-02-28T11:46:04;9.90;94.20
38209;DHT22;24016;52.102;11.584;2023-02-28T11:51:18;11.80;92.10
38209;DHT22;24016;52.102;11.584;2023-02-28T11:54:24;12.60;91.40
38209;DHT22;24016;52.102;11.584;2023-02-28T11:56:55;11.70;92.10
38209;DHT22;24016;52.102;11.584;2023-02-28T12:02:29;10.20;93.10
38209;DHT22;24016;52.102;11.584;2023-02-28T12:05:34;10.80;92.20
38209;DHT22;24016;52.102;11.584;2023-02-28T12:08:36;11.00;92.20
38209;DHT22;24016;52.102;11.584;2023-02-28T12:19:47;12.20;90.80
38209;DHT22;24016;52.102;11.584;2023-02-28T12:22:36;11.60;91.60
38209;DHT22;24016;52.102;11.584;2023-02-28T12:27:38;11.70;91.70
38209;DHT22;24016;52.102;11.584;2023-02-28T12:32:53;10.40;91.70
38209;DHT22;24016;52.102;11.584;2023-02-28T12:35:28;10.40;92.30
38209;DHT22;24016;52.102;11.584;2023-02-28T12:40:45;9.10;93.00
38209;DHT22;24016;52.102;11.584;2023-02-28T12:43:13;9.00;93.10
38209;DHT22;24016;52.102;11.584;2023-02-28T12:45:50;9.70;93.50
38209;DHT22;24016;52.102;11.584;2023-02-28T12:48:37;10.10;92.70
38209;DHT22;24016;52.102;11.584;2023-02-28T12:51:06;10.50;92.80
38209;DHT22;24016;52.102;11.584;2023-02-28T12:59:03;8.90;93.50
38209;DHT22;24016;52.102;11.584;2023-02-28T13:01:42;8.50;93.50
38209;DHT22;24016;52.102;11.584;2023-02-28T13:04:42;8.40;93.50
38209;DHT22;24016;52.102;11.584;2023-02-28T13:10:03;8.80;94.10
38209;DHT22;24016;52.102;11.584;2023-02-28T13:12:29;8.90;94.20
38209;DHT22;24016;52.102;11.584;2023-02-28T13:15:06;8.90;93.90
38209;DHT22;24016;52.102;11.584;2023-02-28T13:17:39;8.60;93.70
38209;DHT22;24016;52.102;11.584;2023-02-28T13:20:28;8.30;93.60
38209;DHT22;24016;52.102;11.584;2023-02-28T13:22:55;7.60;94.20
38209;DHT22;24016;52.102;11.584;2023-02-28T13:27:52;6.90;95.20
38209;DHT22;24016;52.102;11.584;2023-02-28T13:33:33;6.50;95.20
38209;DHT22;24016;52.102;11.584;2023-02-28T13:38:47;6.10;96.60
38209;DHT22;24016;52.102;11.584;2023-02-28T13:44:17;6.00;96.80
38209;DHT22;24016;52.102;11.584;2023-02-28T13:54:40;5.70;97.60
38209;DHT22;24016;52.102;11.584;2023-02-28T13:57:20;5.80;97.40
38209;DHT22;24016;52.102;11.584;2023-02-28T14:05:19;5.90;96.90
38209;DHT22;24016;52.102;11.584;2023-02-28T14:07:53;5.80;96.30
38209;DHT22;24016;52.102;11.584;2023-02-28T14:10:25;5.70;96.10
38209;DHT22;24016;52.102;11.584;2023-02-28T14:18:17;5.30;97.30
38209;DHT22;24016;52.102;11.584;2023-02-28T14:20:45;5.40;98.00
38209;DHT22;24016;52.102;11.584;2023-02-28T14:23:24;5.30;97.30
38209;DHT22;24016;52.102;11.584;2023-02-28T14:29:33;5.20;97.90
38209;DHT22;24016;52.102;11.584;2023-02-28T14:31:41;5.20;97.80
38209;DHT22;24016;52.102;11.584;2023-02-28T14:37:33;4.90;97.60
38209;DHT22;24016;52.102;11.584;2023-02-28T14:40:02;4.80;98.10
38209;DHT22;24016;52.102;11.584;2023-02-28T14:42:35;4.70;98.20
38209;DHT22;24016;52.102;11.584;2023-02-28T14:45:03;4.60;97.50
38209;DHT22;24016;52.102;11.584;2023-02-28T14:47:31;4.60;97.70
38209;DHT22;24016;52.102;11.584;2023-02-28T14:49:59;4.60;98.30
38209;DHT22;24016;52.102;11.584;2023-02-28T14:52:30;4.60;98.60
38209;DHT22;24016;52.102;11.584;2023-02-28T14:55:13;4.70;99.00
38209;DHT22;24016;52.102;11.584;2023-02-28T14:58:01;4.70;98.50
38209;DHT22;24016;52.102;11.584;2023-02-28T15:00:34;4.60;99.10
38209;DHT22;24016;52.102;11.584;2023-02-28T15:03:19;4.60;98.90
38209;DHT22;24016;52.102;11.584;2023-02-28T15:06:03;4.50;99.20
38209;DHT22;24016;52.102;11.584;2023-02-28T15:08:32;4.50;98.30
38209;DHT22;24016;52.102;11.584;2023-02-28T15:11:08;4.40;98.70
38209;DHT22;24016;52.102;11.584;2023-02-28T15:13:38;4.40;99.10
38209;DHT22;24016;52.102;11.584;2023-02-28T15:16:10;4.40;98.70
38209;DHT22;24016;52.102;11.584;2023-02-28T15:18:49;4.40;99.40
38209;DHT22;24016;52.102;11.584;2023-02-28T15:21:53;4.30;98.80
38209;DHT22;24016;52.102;11.584;2023-02-28T15:24:16;4.30;99.20
38209;DHT22;24016;52.102;11.584;2023-02-28T15:26:53;4.30;99.00
38209;DHT22;24016;52.102;11.584;2023-02-28T15:29:22;4.30;98.70
38209;DHT22;24016;52.102;11.584;2023-02-28T15:31:57;4.20;98.50
38209;DHT22;24016;52.102;11.584;2023-02-28T15:34:37;4.10;99.30
38209;DHT22;24016;52.102;11.584;2023-02-28T15:37:37;4.10;98.80
38209;DHT22;24016;52.102;11.584;2023-02-28T15:40:16;4.00;99.60
38209;DHT22;24016;52.102;11.584;2023-02-28T15:42:42;4.00;99.70
38209;DHT22;24016;52.102;11.584;2023-02-28T15:45:49;4.00;99.80
38209;DHT22;24016;52.102;11.584;2023-02-28T15:48:23;3.90;99.50
38209;DHT22;24016;52.102;11.584;2023-02-28T15:50:55;3.80;99.70
38209;DHT22;24016;52.102;11.584;2023-02-28T15:53:33;3.80;99.50
38209;DHT22;24016;52.102;11.584;2023-02-28T15:56:02;3.80;99.40
38209;DHT22;24016;52.102;11.584;2023-02-28T15:58:29;3.70;99.90
38209;DHT22;24016;52.102;11.584;2023-02-28T16:01:06;3.70;99.90
38209;DHT22;24016;52.102;11.584;2023-02-28T16:03:40;3.60;99.90
38209;DHT22;24016;52.102;11.584;2023-02-28T16:09:10;3.60;99.90
38209;DHT22;24016;52.102;11.584;2023-02-28T16:11:39;3.50;99.90
38209;DHT22;24016;52.102;11.584;2023-02-28T16:14:08;3.40;99.90
38209;DHT22;24016;52.102;11.584;2023-02-28T16:16:34;3.40;99.90
38209;DHT22;24016;52.102;11.584;2023-02-28T16:19:00;3.30;99.90
38209;DHT22;24016;52.102;11.584;2023-02-28T16:21:29;3.40;99.90
38209;DHT22;24016;52.102;11.584;2023-02-28T16:23:54;3.30;99.90
38209;DHT22;24016;52.102;11.584;2023-02-28T16:26:24;3.20;99.90
38209;DHT22;24016;52.102;11.584;2023-02-28T16:28:51;3.10;99.90
38209;DHT22;24016;52.102;11.584;2023-02-28T16:31:17;3.00;99.90
38209;DHT22;24016;52.102;11.584;2023-02-28T16:33:44;3.00;99.90
38209;DHT22;24016;52.102;11.584;2023-02-28T16:36:16;2.80;99.90
38209;DHT22;24016;52.102;11.584;2023-02-28T16:38:42;2.70;99.90
38209;DHT22;24016;52.102;11.584;2023-02-28T16:41:12;2.60;99.90
38209;DHT22;24016;52.102;11.584;2023-02-28T16:43:44;2.50;99.90
38209;DHT22;24016;52.102;11.584;2023-02-28T16:46:11;2.50;99.90
38209;DHT22;24016;52.102;11.584;2023-02-28T16:48:36;2.30;99.90
38209;DHT22;24016;52.102;11.584;2023-02-28T16:51:02;2.20;99.90
38209;DHT22;24016;52.102;11.584;2023-02-28T16:53:29;2.10;99.90
38209;DHT22;24016;52.102;11.584;2023-02-28T16:55:55;2.00;99.90
38209;DHT22;24016;52.102;11.584;2023-02-28T16:58:20;1.90;99.90
38209;DHT22;24016;52.102;11.584;2023-02-28T17:00:47;1.70;99.90
38209;DHT22;24016;52.102;11.584;2023-02-28T17:03:32;1.60;99.90
38209;DHT22;24016;52.102;11.584;2023-02-28T17:05:58;1.50;99.90
38209;DHT22;24016;52.102;11.584;2023-02-28T17:08:24;1.40;99.90
38209;DHT22;24016;52.102;11.584;2023-02-28T17:10:49;1.30;99.90
38209;DHT22;24016;52.102;11.584;2023-02-28T17:13:15;1.20;99.90
38209;DHT22;24016;52.102;11.584;2023-02-28T17:15:41;1.10;99.90
38209;DHT22;24016;52.102;11.584;2023-02-28T17:18:09;1.00;99.90
38209;DHT22;24016;52.102;11.584;2023-02-28T17:20:38;0.90;99.90
38209;DHT22;24016;52.102;11.584;2023-02-28T17:23:03;0.80;99.90
38209;DHT22;24016;52.102;11.584;2023-02-28T17:25:30;0.70;99.90
38209;DHT22;24016;52.102;11.584;2023-02-28T17:27:55;0.60;99.90
38209;DHT22;24016;52.102;11.584;2023-02-28T17:30:24;0.50;99.90
38209;DHT22;24016;52.102;11.584;2023-02-28T17:32:53;0.40;99.90